Time;durP1;ratioP1;P1;durP2;ratioP2;P2;SDS_P1;SDS_P2;PMS_P1;PMS_P2;Temp;Humidity;BMP_temperature;BMP_pressure;BME280_temperature;BME280_humidity;BME280_pressure;Samples;Min_cycle;Max_cycle;Signal;HPM_P1;HPM_P2
2021/04/20 00:01:01;;;;;;;17.73;15.90;;;9.70;99.90;;;;;;6248006;28;20812;-60
2021/04/20 00:04:04;;;;;;;20.23;18.13;;;9.80;99.90;;;;;;6247724;28;20479;-58
2021/04/20 00:07:08;;;;;;;18.37;16.33;;;9.70;99.90;;;;;;6238918;28;20475;-63
2021/04/20 00:10:12;;;;;;;16.20;14.43;;;9.70;99.90;;;;;;6239109;28;20483;-60
2021/04/20 00:13:15;;;;;;;19.20;15.33;;;9.80;99.90;;;;;;6242090;28;20501;-60
2021/04/20 00:16:17;;;;;;;19.57;15.33;;;9.80;99.90;;;;;;6237637;28;21053;-59
2021/04/20 00:19:19;;;;;;;18.37;16.07;;;9.80;99.90;;;;;;6233617;28;20810;-60
2021/04/20 00:22:22;;;;;;;17.73;15.70;;;9.80;99.90;;;;;;6231265;28;20467;-60
2021/04/20 00:25:25;;;;;;;17.90;15.67;;;9.80;99.90;;;;;;6250499;28;20487;-62
2021/04/20 00:28:28;;;;;;;17.20;15.50;;;9.70;99.90;;;;;;6250339;28;20511;-58
2021/04/20 00:31:30;;;;;;;18.07;16.17;;;9.70;99.90;;;;;;6239050;28;20471;-58
2021/04/20 00:34:35;;;;;;;19.97;17.87;;;9.80;99.90;;;;;;6225529;28;20510;-61
2021/04/20 00:37:38;;;;;;;19.50;17.47;;;9.70;99.90;;;;;;6224356;28;20827;-57
2021/04/20 00:40:40;;;;;;;16.70;14.93;;;9.80;99.90;;;;;;6223496;28;20483;-58
2021/04/20 00:43:44;;;;;;;19.27;17.17;;;9.70;99.90;;;;;;6223241;28;20820;-59
2021/04/20 00:46:46;;;;;;;19.40;16.87;;;9.70;99.90;;;;;;6223400;28;20483;-58
2021/04/20 00:49:49;;;;;;;18.47;16.30;;;9.80;99.90;;;;;;6223192;28;20475;-58
2021/04/20 00:52:52;;;;;;;16.80;15.00;;;9.80;99.90;;;;;;6223860;28;20487;-58
2021/04/20 00:55:54;;;;;;;19.27;16.50;;;9.80;99.90;;;;;;6224385;28;20476;-58
2021/04/20 00:58:56;;;;;;;18.80;16.57;;;9.80;99.90;;;;;;6224165;28;20480;-58
2021/04/20 01:01:59;;;;;;;17.87;16.07;;;9.80;99.90;;;;;;6225662;28;20498;-59
2021/04/20 01:05:01;;;;;;;17.03;15.27;;;9.90;99.90;;;;;;6224714;28;20817;-59
2021/04/20 01:08:06;;;;;;;16.27;14.57;;;9.80;99.90;;;;;;6225155;28;20475;-59
2021/04/20 01:11:09;;;;;;;19.83;16.60;;;9.90;99.90;;;;;;6216138;28;20480;-59
2021/04/20 01:14:12;;;;;;;17.20;14.40;;;9.90;99.90;;;;;;6224868;28;20579;-58
2021/04/20 01:17:14;;;;;;;18.43;15.80;;;10.00;99.90;;;;;;6225143;28;20479;-58
2021/04/20 01:20:17;;;;;;;16.43;14.63;;;10.00;99.90;;;;;;6225056;28;20487;-60
2021/04/20 01:23:26;;;;;;;17.00;14.90;;;10.00;99.90;;;;;;6225092;28;20472;-59
2021/04/20 01:26:31;;;;;;;18.97;15.40;;;10.10;99.90;;;;;;6224758;28;20555;-59
2021/04/20 01:29:34;;;;;;;18.00;16.07;;;10.10;99.90;;;;;;6224791;28;20484;-59
2021/04/20 01:32:42;;;;;;;16.70;14.90;;;10.20;99.90;;;;;;6224609;28;20813;-59
2021/04/20 01:35:45;;;;;;;18.80;15.40;;;10.20;99.90;;;;;;6224481;28;20477;-59
2021/04/20 01:38:48;;;;;;;16.53;14.93;;;10.20;99.90;;;;;;6224662;28;20464;-59
2021/04/20 01:41:52;;;;;;;17.23;15.57;;;10.10;99.90;;;;;;6224531;28;20475;-60
2021/04/20 01:44:54;;;;;;;16.67;14.70;;;10.20;99.90;;;;;;6227900;28;20498;-59
2021/04/20 01:47:58;;;;;;;17.87;16.03;;;10.20;99.90;;;;;;6229478;28;20990;-59
2021/04/20 01:51:01;;;;;;;16.17;14.47;;;10.20;99.90;;;;;;6229771;28;20474;-60
2021/04/20 01:54:03;;;;;;;18.30;15.53;;;10.20;99.90;;;;;;6229227;28;20809;-60
2021/04/20 01:57:08;;;;;;;18.23;16.33;;;10.20;99.90;;;;;;6229242;28;20479;-57
2021/04/20 02:00:12;;;;;;;17.03;15.23;;;10.20;99.90;;;;;;6229039;28;20483;-59
2021/04/20 02:03:15;;;;;;;17.93;15.67;;;10.20;99.90;;;;;;6228832;28;20573;-58
2021/04/20 02:06:19;;;;;;;18.00;16.33;;;10.20;99.90;;;;;;6229307;28;20486;-59
2021/04/20 02:09:21;;;;;;;17.50;15.23;;;10.20;99.90;;;;;;6228961;28;20489;-59
2021/04/20 02:12:24;;;;;;;17.10;15.40;;;10.10;99.90;;;;;;6221022;28;20471;-59
2021/04/20 02:15:27;;;;;;;20.27;16.57;;;10.20;99.90;;;;;;6228644;28;20451;-59
2021/04/20 02:18:31;;;;;;;18.40;16.47;;;10.10;99.90;;;;;;6228901;28;20452;-59
2021/04/20 02:21:34;;;;;;;20.17;16.00;;;9.80;99.90;;;;;;6228879;28;20451;-58
2021/04/20 02:24:38;;;;;;;17.50;15.40;;;9.70;99.90;;;;;;6228646;28;20899;-58
2021/04/20 02:27:42;;;;;;;18.40;16.17;;;9.70;99.90;;;;;;6228585;28;20444;-59
2021/04/20 02:30:44;;;;;;;19.40;16.20;;;9.70;99.90;;;;;;6228885;28;20455;-60
2021/04/20 02:33:49;;;;;;;17.63;14.90;;;9.70;99.90;;;;;;6228478;28;20472;-58
2021/04/20 02:36:54;;;;;;;19.93;15.70;;;9.70;99.90;;;;;;6228783;28;20541;-58
2021/04/20 02:39:56;;;;;;;20.73;17.40;;;9.60;99.90;;;;;;6227960;28;20467;-58
2021/04/20 02:43:00;;;;;;;21.60;16.00;;;9.70;99.90;;;;;;6227940;28;20475;-59
2021/04/20 02:46:03;;;;;;;19.93;15.93;;;9.70;99.90;;;;;;6228120;28;20463;-58
2021/04/20 02:49:06;;;;;;;17.57;15.77;;;9.60;99.90;;;;;;6228201;28;20563;-58
2021/04/20 02:52:09;;;;;;;19.13;17.23;;;9.60;99.90;;;;;;6228287;28;20464;-59
2021/04/20 02:55:12;;;;;;;18.13;16.23;;;9.50;99.90;;;;;;6227927;28;20507;-58
2021/04/20 02:58:18;;;;;;;22.07;16.37;;;9.50;99.90;;;;;;6227620;28;20821;-59
2021/04/20 03:01:23;;;;;;;18.37;16.40;;;9.40;99.90;;;;;;6228036;28;20800;-59
2021/04/20 03:04:25;;;;;;;18.10;16.13;;;9.20;99.90;;;;;;6227746;28;20542;-59
2021/04/20 03:07:28;;;;;;;21.00;17.80;;;9.20;99.90;;;;;;6227967;28;20476;-59
2021/04/20 03:10:32;;;;;;;20.07;17.30;;;9.20;99.90;;;;;;6228008;28;20479;-59
2021/04/20 03:13:35;;;;;;;22.03;17.70;;;9.20;99.90;;;;;;6227437;28;20487;-59
2021/04/20 03:16:41;;;;;;;20.73;17.73;;;9.10;99.90;;;;;;6223226;28;20491;-63
2021/04/20 03:19:43;;;;;;;22.77;18.13;;;9.10;99.90;;;;;;6227607;28;20976;-59
2021/04/20 03:22:47;;;;;;;20.27;17.07;;;9.10;99.90;;;;;;6227391;28;20476;-59
2021/04/20 03:25:50;;;;;;;20.17;18.07;;;9.10;99.90;;;;;;6227193;28;20495;-60
2021/04/20 03:28:54;;;;;;;22.53;17.43;;;9.10;99.90;;;;;;6227100;28;20638;-59
2021/04/20 03:31:56;;;;;;;19.73;16.50;;;9.10;99.90;;;;;;6227134;28;20472;-59
2021/04/20 03:35:04;;;;;;;17.97;16.07;;;9.20;99.90;;;;;;6226600;28;20856;-59
2021/04/20 03:38:13;;;;;;;17.83;15.00;;;9.20;99.90;;;;;;6227220;28;20468;-58
2021/04/20 03:41:24;;;;;;;16.27;14.57;;;9.20;99.90;;;;;;6227066;28;20515;-59
2021/04/20 03:44:30;;;;;;;15.87;14.03;;;9.30;99.90;;;;;;6226784;28;20491;-59
2021/04/20 03:47:38;;;;;;;14.60;12.43;;;9.30;99.90;;;;;;6226887;28;20468;-60
2021/04/20 03:50:43;;;;;;;15.37;13.10;;;9.30;99.90;;;;;;6226666;28;20828;-58
2021/04/20 03:53:47;;;;;;;14.73;13.10;;;9.30;99.90;;;;;;6226520;28;20488;-59
2021/04/20 03:56:52;;;;;;;14.00;11.33;;;9.30;99.90;;;;;;6226732;28;20476;-60
2021/04/20 03:59:58;;;;;;;14.63;12.30;;;9.30;99.90;;;;;;6226404;28;20793;-59
2021/04/20 04:03:05;;;;;;;14.13;12.73;;;9.30;99.90;;;;;;6226232;28;20480;-58
2021/04/20 04:06:09;;;;;;;13.17;11.77;;;9.30;99.90;;;;;;6225986;28;20569;-58
2021/04/20 04:09:13;;;;;;;16.60;13.90;;;9.20;99.90;;;;;;6226228;28;20973;-59
2021/04/20 04:12:18;;;;;;;14.50;12.30;;;9.20;99.90;;;;;;6226219;28;20479;-59
2021/04/20 04:15:23;;;;;;;17.20;14.23;;;9.10;99.90;;;;;;6226493;28;20483;-58
2021/04/20 04:18:27;;;;;;;19.03;15.83;;;9.10;99.90;;;;;;6226214;28;20452;-59
2021/04/20 04:21:41;;;;;;;17.50;15.40;;;9.10;99.90;;;;;;6226206;28;20447;-58
2021/04/20 04:24:49;;;;;;;18.90;15.90;;;9.10;99.90;;;;;;6226093;28;20478;-59
2021/04/20 04:27:56;;;;;;;22.77;16.67;;;9.10;99.90;;;;;;6225877;28;20541;-59
2021/04/20 04:31:02;;;;;;;18.53;16.50;;;9.20;99.90;;;;;;6225714;28;20801;-58
2021/04/20 04:34:05;;;;;;;20.00;16.60;;;9.20;99.90;;;;;;6225813;28;20468;-59
2021/04/20 04:37:09;;;;;;;23.17;16.70;;;9.20;99.90;;;;;;6225948;28;20484;-59
2021/04/20 04:40:11;;;;;;;19.43;17.30;;;9.20;99.90;;;;;;6225779;28;20477;-59
2021/04/20 04:43:15;;;;;;;19.47;16.27;;;9.30;99.90;;;;;;6225786;28;20487;-60
2021/04/20 04:46:22;;;;;;;18.27;15.90;;;9.30;99.90;;;;;;6225728;28;20499;-60
2021/04/20 04:49:25;;;;;;;19.77;16.93;;;9.30;99.90;;;;;;6225950;28;20479;-60
2021/04/20 04:52:29;;;;;;;20.07;17.00;;;9.30;99.90;;;;;;6225261;28;20479;-59
2021/04/20 04:55:31;;;;;;;18.40;16.00;;;9.40;99.90;;;;;;6225464;28;20476;-58
2021/04/20 04:58:36;;;;;;;19.53;16.00;;;9.40;99.90;;;;;;6225320;28;20472;-59
2021/04/20 05:01:41;;;;;;;18.00;15.70;;;9.50;99.90;;;;;;6225366;28;20480;-60
2021/04/20 05:04:44;;;;;;;17.63;15.73;;;9.60;99.90;;;;;;6224939;28;20483;-58
2021/04/20 05:07:46;;;;;;;17.37;14.03;;;9.60;99.90;;;;;;6225092;28;21033;-60
2021/04/20 05:10:49;;;;;;;17.00;14.80;;;9.70;99.90;;;;;;6224980;28;20472;-60
2021/04/20 05:13:51;;;;;;;15.63;14.13;;;9.80;99.90;;;;;;6225304;28;20559;-59
2021/04/20 05:16:55;;;;;;;10.83;9.20;;;9.90;99.90;;;;;;6225181;28;20464;-57
2021/04/20 05:19:57;;;;;;;11.03;8.30;;;10.00;99.90;;;;;;6224236;28;20464;-58
2021/04/20 05:22:59;;;;;;;8.53;6.20;;;10.00;99.90;;;;;;6225219;28;20967;-59
2021/04/20 05:26:01;;;;;;;7.63;6.63;;;10.00;99.90;;;;;;6215352;28;20792;-59
2021/04/20 05:29:05;;;;;;;8.53;6.53;;;10.10;99.90;;;;;;6224917;28;20538;-59
2021/04/20 05:32:09;;;;;;;11.23;6.93;;;10.20;99.70;;;;;;6224817;28;21239;-59
2021/04/20 05:35:13;;;;;;;6.60;6.00;;;10.30;99.10;;;;;;6224433;28;20480;-59
2021/04/20 05:38:19;;;;;;;10.10;6.60;;;10.40;98.60;;;;;;6225014;28;20543;-59
2021/04/20 05:41:23;;;;;;;10.43;7.37;;;10.40;98.10;;;;;;6224622;28;20476;-59
2021/04/20 05:44:25;;;;;;;10.90;6.47;;;10.40;97.40;;;;;;6224878;28;20549;-59
2021/04/20 05:47:28;;;;;;;7.57;5.83;;;10.40;97.40;;;;;;6224676;28;20822;-60
2021/04/20 05:50:31;;;;;;;9.67;6.60;;;10.40;96.80;;;;;;6224839;28;20570;-59
2021/04/20 05:53:33;;;;;;;8.43;6.50;;;10.40;96.80;;;;;;6224591;28;20480;-60
2021/04/20 05:56:35;;;;;;;9.33;6.37;;;10.30;96.30;;;;;;6224480;28;20479;-58
2021/04/20 05:59:38;;;;;;;9.77;6.13;;;10.20;95.70;;;;;;6224049;28;20487;-63
2021/04/20 06:02:42;;;;;;;11.40;7.80;;;10.20;95.90;;;;;;6224211;28;20476;-62
2021/04/20 06:05:45;;;;;;;16.47;10.23;;;10.10;96.00;;;;;;6224020;28;20963;-62
2021/04/20 06:08:49;;;;;;;12.63;8.00;;;10.10;96.10;;;;;;6224672;28;20476;-62
2021/04/20 06:11:51;;;;;;;9.63;6.10;;;10.10;96.10;;;;;;6222054;28;20467;-62
2021/04/20 06:14:53;;;;;;;7.97;5.70;;;10.30;95.90;;;;;;6222152;28;20494;-62
2021/04/20 06:17:56;;;;;;;13.00;9.00;;;10.40;95.60;;;;;;6222268;28;20482;-62
2021/04/20 06:21:00;;;;;;;17.70;13.47;;;10.40;95.70;;;;;;6222261;28;20479;-62
2021/04/20 06:24:03;;;;;;;19.60;13.90;;;10.50;99.00;;;;;;6224106;28;20472;-62
2021/04/20 06:27:06;;;;;;;15.87;14.27;;;10.40;99.90;;;;;;6222792;28;20476;-62
2021/04/20 06:30:10;;;;;;;19.10;14.13;;;10.50;99.90;;;;;;6223784;28;20486;-62
2021/04/20 06:33:14;;;;;;;18.30;16.50;;;10.50;99.90;;;;;;6225728;28;20944;-62
2021/04/20 06:36:17;;;;;;;18.53;15.60;;;10.20;99.90;;;;;;6226462;28;20480;-62
2021/04/20 06:39:22;;;;;;;17.77;15.77;;;10.20;99.90;;;;;;6226288;28;20977;-62
2021/04/20 06:42:27;;;;;;;18.87;14.60;;;10.20;99.90;;;;;;6227171;28;20912;-61
2021/04/20 06:45:35;;;;;;;15.77;14.07;;;10.30;99.90;;;;;;6228679;28;20448;-61
2021/04/20 06:48:44;;;;;;;18.53;15.23;;;10.40;99.90;;;;;;6228351;28;20467;-62
2021/04/20 06:51:50;;;;;;;17.80;14.50;;;10.50;99.90;;;;;;6227903;28;20468;-62
2021/04/20 06:55:01;;;;;;;16.33;14.60;;;10.60;99.90;;;;;;6227972;28;20811;-62
2021/04/20 06:58:08;;;;;;;19.57;15.47;;;10.60;99.90;;;;;;6227886;28;20786;-62
2021/04/20 07:01:16;;;;;;;22.17;16.00;;;10.70;99.90;;;;;;6228032;28;20479;-62
2021/04/20 07:04:27;;;;;;;20.43;15.57;;;10.70;99.90;;;;;;6227795;28;20486;-62
2021/04/20 07:07:42;;;;;;;18.00;15.50;;;10.70;99.90;;;;;;6228038;28;20472;-62
2021/04/20 07:10:46;;;;;;;16.57;14.67;;;10.90;99.90;;;;;;6227622;28;20472;-62
2021/04/20 07:13:51;;;;;;;16.90;15.10;;;11.00;99.90;;;;;;6227715;28;20494;-62
2021/04/20 07:17:03;;;;;;;20.20;15.00;;;11.00;99.90;;;;;;6227653;28;20472;-63
2021/04/20 07:20:22;;;;;;;16.73;14.97;;;10.90;99.90;;;;;;6227402;28;20968;-62
2021/04/20 07:23:35;;;;;;;18.03;15.40;;;10.90;99.90;;;;;;6227541;28;20975;-62
2021/04/20 07:26:49;;;;;;;16.67;14.87;;;11.00;99.90;;;;;;6227446;28;20614;-64
2021/04/20 07:30:12;;;;;;;17.60;15.07;;;11.10;99.90;;;;;;6227584;28;20477;-63
2021/04/20 07:33:32;;;;;;;18.50;14.43;;;11.40;99.90;;;;;;6227148;28;20568;-64
2021/04/20 07:36:46;;;;;;;18.60;15.00;;;11.80;99.90;;;;;;6227152;28;20555;-62
2021/04/20 07:39:57;;;;;;;15.63;13.70;;;12.50;99.90;;;;;;6234410;28;20799;-63
2021/04/20 07:43:17;;;;;;;17.93;13.97;;;13.20;99.90;;;;;;6243573;28;20561;-63
2021/04/20 07:46:24;;;;;;;14.17;12.37;;;13.60;98.40;;;;;;6241348;28;20482;-62
2021/04/20 07:49:43;;;;;;;14.77;11.33;;;13.80;96.80;;;;;;6246481;28;20573;-62
2021/04/20 07:52:53;;;;;;;15.93;10.60;;;14.20;95.40;;;;;;6228356;28;20793;-61
2021/04/20 07:56:03;;;;;;;11.97;10.67;;;14.90;93.80;;;;;;6227865;28;20475;-62
2021/04/20 07:59:13;;;;;;;15.13;8.80;;;15.70;92.20;;;;;;6241384;28;20483;-61
2021/04/20 08:02:27;;;;;;;11.93;9.00;;;16.20;85.50;;;;;;6252187;28;20825;-62
2021/04/20 08:05:34;;;;;;;8.87;7.80;;;16.40;81.30;;;;;;6251811;28;20467;-62
2021/04/20 08:08:45;;;;;;;7.03;5.70;;;16.50;76.70;;;;;;6251127;28;20981;-62
2021/04/20 08:11:50;;;;;;;6.80;6.00;;;16.30;73.30;;;;;;6250410;28;20485;-61
2021/04/20 08:15:01;;;;;;;7.20;5.80;;;15.90;72.20;;;;;;6250701;28;20486;-61
2021/04/20 08:18:08;;;;;;;9.33;5.50;;;15.40;72.30;;;;;;6250774;28;20836;-62
2021/04/20 08:21:14;;;;;;;5.27;4.77;;;15.00;73.70;;;;;;6250669;28;20529;-61
2021/04/20 08:24:22;;;;;;;4.07;3.10;;;14.50;72.60;;;;;;6250306;28;20505;-62
2021/04/20 08:27:31;;;;;;;3.10;2.80;;;14.20;71.10;;;;;;6250508;28;20479;-61
2021/04/20 08:30:41;;;;;;;2.60;2.40;;;13.80;71.10;;;;;;6249983;28;20923;-61
2021/04/20 08:33:47;;;;;;;2.80;2.60;;;13.60;72.00;;;;;;6245832;28;20463;-62
2021/04/20 08:37:07;;;;;;;2.60;2.40;;;13.40;72.00;;;;;;6249912;28;21033;-62
2021/04/20 08:40:18;;;;;;;2.63;2.43;;;13.30;73.40;;;;;;6250281;28;20799;-61
2021/04/20 08:43:47;;;;;;;2.87;2.63;;;13.20;74.40;;;;;;6243721;28;20483;-62
2021/04/20 08:46:59;;;;;;;5.40;3.10;;;13.10;76.20;;;;;;6250304;28;20616;-61
2021/04/20 08:50:07;;;;;;;3.50;3.10;;;13.00;78.90;;;;;;6249420;28;20565;-61
2021/04/20 08:53:36;;;;;;;4.83;3.30;;;12.90;81.80;;;;;;6248583;28;20475;-62
2021/04/20 08:56:47;;;;;;;4.10;3.60;;;12.90;84.70;;;;;;6249608;28;20475;-63
2021/04/20 09:00:10;;;;;;;3.60;2.90;;;13.00;85.50;;;;;;6249514;28;20479;-64
2021/04/20 09:03:27;;;;;;;4.50;3.20;;;12.90;86.80;;;;;;6249702;28;20483;-63
2021/04/20 09:06:33;;;;;;;4.00;3.40;;;12.90;89.50;;;;;;6249194;28;20920;-62
2021/04/20 09:09:37;;;;;;;4.37;4.00;;;13.00;89.30;;;;;;6249371;28;20473;-63
2021/04/20 09:12:42;;;;;;;3.80;3.50;;;13.00;90.60;;;;;;6248226;28;20447;-62
2021/04/20 09:15:49;;;;;;;4.27;3.97;;;13.00;90.30;;;;;;6248997;28;20446;-63
2021/04/20 09:18:52;;;;;;;3.93;3.63;;;13.20;91.20;;;;;;6249115;28;20475;-63
2021/04/20 09:22:02;;;;;;;4.03;3.63;;;13.30;90.70;;;;;;6247538;28;20482;-63
2021/04/20 09:25:13;;;;;;;4.00;3.57;;;13.60;90.90;;;;;;6248998;28;20475;-61
2021/04/20 09:28:20;;;;;;;3.77;3.47;;;13.90;90.70;;;;;;6249706;28;20481;-65
2021/04/20 09:31:25;;;;;;;4.50;3.27;;;14.30;90.80;;;;;;6249189;28;20471;-62
2021/04/20 09:34:31;;;;;;;4.50;4.10;;;14.90;88.80;;;;;;6249337;28;20467;-65
2021/04/20 09:37:37;;;;;;;7.30;5.50;;;15.90;83.70;;;;;;6249381;28;20572;-65
2021/04/20 09:40:41;;;;;;;6.20;5.10;;;17.00;77.70;;;;;;6248863;28;20463;-66
2021/04/20 09:43:53;;;;;;;3.80;3.50;;;17.90;74.60;;;;;;6248880;28;20793;-65
2021/04/20 09:47:17;;;;;;;4.00;3.63;;;18.30;67.90;;;;;;6249412;28;20479;-63
2021/04/20 09:50:24;;;;;;;3.63;3.33;;;18.70;66.70;;;;;;6248738;28;20803;-64
2021/04/20 09:53:53;;;;;;;4.83;3.57;;;19.00;63.10;;;;;;6248910;28;20225;-64
2021/04/20 09:56:57;;;;;;;2.83;2.63;;;19.20;60.70;;;;;;6248521;28;20471;-63
2021/04/20 10:00:12;;;;;;;3.30;3.00;;;19.30;58.90;;;;;;6248974;28;20262;-63
2021/04/20 10:03:23;;;;;;;3.63;3.33;;;19.40;58.10;;;;;;6247924;28;20243;-63
2021/04/20 10:06:52;;;;;;;3.23;2.93;;;19.40;56.60;;;;;;6252633;28;20299;-63
2021/04/20 10:10:04;;;;;;;2.50;2.30;;;19.40;56.90;;;;;;6251405;28;20289;-62
2021/04/20 10:13:19;;;;;;;3.60;3.10;;;19.20;54.60;;;;;;6252813;28;20248;-64
2021/04/20 10:16:27;;;;;;;3.57;3.27;;;18.60;55.50;;;;;;6250471;28;20586;-64
2021/04/20 10:19:37;;;;;;;4.50;3.00;;;18.60;55.00;;;;;;6253220;28;20459;-61
2021/04/20 10:22:47;;;;;;;2.70;2.50;;;18.40;55.50;;;;;;6253233;28;20475;-61
2021/04/20 10:25:59;;;;;;;2.40;2.20;;;18.30;55.40;;;;;;6252811;28;20558;-62
2021/04/20 10:29:16;;;;;;;3.53;2.33;;;18.10;55.00;;;;;;6253161;28;20471;-65
2021/04/20 10:32:23;;;;;;;2.37;2.17;;;17.90;55.30;;;;;;6252692;28;20951;-62
2021/04/20 10:35:29;;;;;;;4.23;2.30;;;17.70;55.50;;;;;;6253170;28;20475;-63
2021/04/20 10:38:33;;;;;;;2.07;1.97;;;17.40;56.00;;;;;;6252605;28;20502;-62
2021/04/20 10:41:38;;;;;;;2.13;1.63;;;17.30;55.90;;;;;;6252818;28;20852;-63
2021/04/20 10:44:43;;;;;;;1.77;1.67;;;17.40;55.10;;;;;;6218838;28;20476;-63
2021/04/20 10:47:52;;;;;;;4.67;2.50;;;17.30;55.30;;;;;;6227948;28;20483;-62
2021/04/20 10:50:55;;;;;;;2.33;1.97;;;17.20;55.90;;;;;;6245989;28;20471;-63
2021/04/20 10:53:59;;;;;;;1.97;1.87;;;17.30;54.50;;;;;;6252246;28;20548;-63
2021/04/20 10:57:03;;;;;;;2.00;1.80;;;17.50;54.30;;;;;;6252861;28;20479;-63
2021/04/20 11:00:07;;;;;;;3.90;1.90;;;17.70;54.10;;;;;;6252664;28;20471;-62
2021/04/20 11:03:11;;;;;;;3.40;2.10;;;17.90;53.90;;;;;;6251247;28;20789;-65
2021/04/20 11:06:50;;;;;;;3.70;2.63;;;18.30;54.10;;;;;;6248959;28;20992;-62
2021/04/20 11:09:58;;;;;;;2.50;2.30;;;18.80;52.90;;;;;;6248307;28;20479;-64
2021/04/20 11:13:00;;;;;;;2.33;2.13;;;19.30;50.40;;;;;;6249643;28;20610;-65
2021/04/20 11:16:06;;;;;;;2.10;1.90;;;19.70;51.00;;;;;;6248960;28;20234;-63
2021/04/20 11:19:12;;;;;;;2.90;2.50;;;19.90;48.60;;;;;;6250302;28;20577;-64
2021/04/20 11:22:16;;;;;;;2.30;2.10;;;19.60;49.60;;;;;;6251863;28;20282;-63
2021/04/20 11:25:28;;;;;;;2.40;2.20;;;19.50;49.60;;;;;;6251405;28;20251;-63
2021/04/20 11:28:37;;;;;;;2.57;2.37;;;19.40;50.00;;;;;;6252661;28;20235;-63
2021/04/20 11:31:47;;;;;;;2.60;2.30;;;19.20;48.70;;;;;;6250607;28;20236;-61
2021/04/20 11:34:55;;;;;;;2.90;2.67;;;19.10;49.00;;;;;;6249326;28;20479;-64
2021/04/20 11:38:00;;;;;;;2.80;2.60;;;19.00;48.70;;;;;;6246181;28;20290;-62
2021/04/20 11:41:04;;;;;;;3.00;2.80;;;19.20;48.80;;;;;;6248610;28;20240;-64
2021/04/20 11:44:08;;;;;;;5.57;2.70;;;19.40;48.80;;;;;;6247119;28;20578;-63
2021/04/20 11:47:12;;;;;;;3.63;2.77;;;19.60;48.30;;;;;;6243773;28;20239;-62
2021/04/20 11:50:18;;;;;;;6.10;3.00;;;19.60;47.70;;;;;;6250742;28;20366;-63
2021/04/20 11:53:21;;;;;;;2.70;2.50;;;19.20;47.80;;;;;;6250870;28;20456;-63
2021/04/20 11:56:24;;;;;;;2.50;2.03;;;18.60;49.00;;;;;;6226098;28;20229;-62
2021/04/20 11:59:27;;;;;;;5.77;2.53;;;18.50;49.00;;;;;;6226568;28;20237;-63
2021/04/20 12:02:31;;;;;;;2.33;2.13;;;18.40;49.10;;;;;;6235066;28;20463;-63
2021/04/20 12:05:35;;;;;;;4.90;3.13;;;18.50;49.20;;;;;;6250637;28;20471;-62
2021/04/20 12:08:42;;;;;;;2.37;2.17;;;18.50;49.10;;;;;;6250607;28;20475;-62
2021/04/20 12:11:47;;;;;;;3.50;2.90;;;18.30;49.20;;;;;;6250882;28;20471;-64
2021/04/20 12:14:49;;;;;;;5.03;2.23;;;18.10;49.30;;;;;;6250676;28;20478;-62
2021/04/20 12:17:52;;;;;;;4.57;2.80;;;18.40;49.10;;;;;;6250484;28;20467;-62
2021/04/20 12:21:00;;;;;;;3.03;2.83;;;18.70;49.10;;;;;;6250461;28;20478;-65
2021/04/20 12:24:03;;;;;;;3.00;2.70;;;18.80;48.50;;;;;;6248931;28;20621;-62
2021/04/20 12:27:07;;;;;;;4.03;3.00;;;18.60;48.80;;;;;;6249712;28;20479;-62
2021/04/20 12:30:12;;;;;;;4.97;2.50;;;18.60;48.80;;;;;;6249348;28;20534;-62
2021/04/20 12:33:22;;;;;;;2.70;2.50;;;19.10;49.10;;;;;;6249957;28;20892;-60
2021/04/20 12:36:28;;;;;;;4.33;2.97;;;19.40;47.50;;;;;;6249959;28;20235;-63
2021/04/20 12:39:36;;;;;;;3.87;3.50;;;19.30;46.20;;;;;;6250478;28;20224;-62
2021/04/20 12:42:40;;;;;;;6.00;3.70;;;19.00;46.70;;;;;;6249417;28;20204;-61
2021/04/20 12:45:43;;;;;;;3.43;3.17;;;18.90;47.10;;;;;;6249131;28;20435;-62
2021/04/20 12:48:47;;;;;;;3.40;3.00;;;19.00;47.20;;;;;;6247042;28;20432;-63
2021/04/20 12:51:51;;;;;;;4.87;4.47;;;19.30;47.20;;;;;;6247030;28;20481;-63
2021/04/20 12:54:57;;;;;;;3.87;3.57;;;19.70;45.90;;;;;;6244618;28;20232;-62
2021/04/20 12:58:17;;;;;;;4.23;3.30;;;20.00;44.60;;;;;;6250063;28;20224;-62
2021/04/20 13:01:22;;;;;;;3.97;3.67;;;20.10;45.20;;;;;;6248502;28;20216;-61
2021/04/20 13:04:25;;;;;;;4.27;3.90;;;20.20;44.00;;;;;;6248963;28;20577;-61
2021/04/20 13:07:30;;;;;;;4.23;3.83;;;20.00;46.70;;;;;;6249437;28;20232;-61
2021/04/20 13:10:33;;;;;;;4.00;3.60;;;20.00;49.90;;;;;;6249638;28;20250;-62
2021/04/20 13:13:36;;;;;;;3.60;3.30;;;19.70;50.70;;;;;;6248407;28;20317;-61
2021/04/20 13:16:40;;;;;;;4.40;4.00;;;19.60;51.30;;;;;;6247134;28;20221;-61
2021/04/20 13:19:47;;;;;;;4.10;3.70;;;19.20;51.70;;;;;;6248061;28;20699;-61
2021/04/20 13:22:51;;;;;;;3.93;3.63;;;18.90;52.10;;;;;;6248526;28;20232;-62
2021/04/20 13:25:55;;;;;;;4.50;4.10;;;17.80;53.50;;;;;;6248930;28;20470;-61
2021/04/20 13:28:57;;;;;;;4.50;3.80;;;17.20;55.10;;;;;;6246753;28;20473;-61
2021/04/20 13:32:02;;;;;;;3.97;3.40;;;17.40;54.70;;;;;;6247841;28;20475;-62
2021/04/20 13:35:06;;;;;;;3.67;3.37;;;16.90;55.00;;;;;;6248510;28;20609;-62
2021/04/20 13:38:10;;;;;;;4.47;4.07;;;16.80;54.60;;;;;;6247695;28;20482;-59
2021/04/20 13:41:12;;;;;;;4.37;3.50;;;16.60;55.30;;;;;;6250158;28;20563;-60
2021/04/20 13:44:16;;;;;;;4.47;3.70;;;16.50;55.70;;;;;;6252917;28;20471;-58
2021/04/20 13:47:22;;;;;;;3.97;3.57;;;16.70;55.90;;;;;;6253282;28;20467;-60
2021/04/20 13:50:28;;;;;;;5.10;3.80;;;16.90;56.80;;;;;;6252592;28;20570;-60
2021/04/20 13:53:37;;;;;;;4.33;4.00;;;17.00;56.30;;;;;;6250190;28;20482;-58
2021/04/20 13:56:42;;;;;;;4.40;4.00;;;16.80;56.30;;;;;;6244779;28;20514;-60
2021/04/20 13:59:50;;;;;;;3.50;3.20;;;16.80;57.20;;;;;;6251974;28;20486;-58
2021/04/20 14:02:56;;;;;;;4.30;4.00;;;16.90;57.20;;;;;;6251738;28;20537;-59
2021/04/20 14:06:00;;;;;;;4.23;3.87;;;17.00;57.30;;;;;;6252509;28;20816;-58
2021/04/20 14:09:07;;;;;;;4.30;3.90;;;16.80;57.20;;;;;;6252082;28;20475;-60
2021/04/20 14:12:12;;;;;;;4.83;4.43;;;16.70;57.10;;;;;;6249633;28;20962;-59
2021/04/20 14:15:17;;;;;;;4.63;4.33;;;16.60;57.20;;;;;;6249914;28;20475;-57
2021/04/20 14:18:23;;;;;;;4.97;4.40;;;16.50;57.40;;;;;;6250444;28;20474;-61
2021/04/20 14:21:32;;;;;;;4.97;4.57;;;16.60;57.70;;;;;;6251289;28;20802;-59
2021/04/20 14:24:37;;;;;;;4.97;4.47;;;16.60;57.80;;;;;;6250839;28;21046;-58
2021/04/20 14:27:40;;;;;;;4.47;4.07;;;16.50;58.30;;;;;;6251996;28;20439;-58
2021/04/20 14:30:44;;;;;;;4.40;4.00;;;16.50;58.50;;;;;;6251015;28;20475;-59
2021/04/20 14:33:48;;;;;;;4.67;4.27;;;16.50;59.40;;;;;;6251470;28;20458;-60
2021/04/20 14:36:57;;;;;;;4.30;3.80;;;16.30;59.90;;;;;;6251466;28;20536;-59
2021/04/20 14:40:02;;;;;;;4.57;4.10;;;16.10;60.90;;;;;;6271845;28;20466;-60
2021/04/20 14:43:07;;;;;;;4.30;3.70;;;15.90;62.70;;;;;;6264203;28;20470;-59
2021/04/20 14:46:12;;;;;;;4.10;3.70;;;15.70;63.70;;;;;;6251345;28;20482;-60
2021/04/20 14:49:23;;;;;;;4.30;3.90;;;15.60;62.50;;;;;;6249589;28;20471;-62
2021/04/20 14:52:27;;;;;;;4.60;4.07;;;15.60;61.70;;;;;;6226553;28;20952;-60
2021/04/20 14:55:36;;;;;;;4.77;4.37;;;15.50;61.40;;;;;;6245985;28;20489;-60
2021/04/20 14:58:43;;;;;;;3.80;3.40;;;15.60;60.70;;;;;;6219707;28;775832;-60
2021/04/20 15:01:54;;;;;;;5.60;5.10;;;15.60;60.80;;;;;;6250774;28;20701;-61
2021/04/20 15:04:57;;;;;;;5.10;4.60;;;15.60;60.70;;;;;;6250243;28;20471;-59
2021/04/20 15:08:07;;;;;;;4.07;3.77;;;15.60;60.70;;;;;;6249795;28;21059;-59
2021/04/20 15:11:11;;;;;;;3.73;3.43;;;15.80;61.10;;;;;;6250196;28;20540;-59
2021/04/20 15:14:19;;;;;;;3.90;3.50;;;16.00;60.20;;;;;;6249883;28;20536;-58
2021/04/20 15:17:27;;;;;;;4.27;3.87;;;16.00;60.20;;;;;;6251161;28;20994;-59
2021/04/20 15:20:32;;;;;;;4.40;4.00;;;15.90;60.70;;;;;;6252052;28;20467;-59
2021/04/20 15:23:45;;;;;;;4.23;3.80;;;15.90;61.10;;;;;;6252196;28;20485;-61
2021/04/20 15:26:52;;;;;;;4.30;3.90;;;16.10;61.00;;;;;;6251838;28;20475;-60
2021/04/20 15:30:00;;;;;;;4.90;4.13;;;16.10;60.70;;;;;;6252016;28;20475;-62
2021/04/20 15:33:05;;;;;;;4.30;3.90;;;16.00;60.70;;;;;;6251544;28;20530;-61
2021/04/20 15:36:09;;;;;;;5.53;5.03;;;16.10;60.80;;;;;;6251817;28;20478;-61
2021/04/20 15:39:13;;;;;;;4.30;3.90;;;16.10;60.80;;;;;;6264614;28;20812;-64
2021/04/20 15:42:18;;;;;;;4.83;4.40;;;16.10;60.00;;;;;;6271074;28;20573;-60
2021/04/20 15:45:27;;;;;;;6.17;3.87;;;16.10;60.20;;;;;;6251595;28;20471;-61
2021/04/20 15:48:32;;;;;;;5.00;4.50;;;16.10;60.60;;;;;;6251608;28;20431;-62
2021/04/20 15:51:40;;;;;;;4.30;3.90;;;15.80;61.30;;;;;;6251044;28;20478;-63
2021/04/20 15:54:45;;;;;;;4.57;4.17;;;15.80;63.20;;;;;;6250458;28;20489;-60
2021/04/20 15:57:55;;;;;;;4.60;4.20;;;15.90;61.60;;;;;;6250520;28;20462;-60
2021/04/20 16:01:01;;;;;;;6.63;4.67;;;15.80;61.60;;;;;;6246784;28;20472;-58